Map

Track Data

SID SEASON NUMBER BASIN SUBBASIN NAME ISO_TIME NATURE LAT LON WMO_WIND WMO_PRES WMO_AGENCY TRACK_TYPE DIST2LAND LANDFALL IFLAG USA_AGENCY USA_ATCF_ID USA_LAT USA_LON USA_RECORD USA_STATUS USA_WIND USA_PRES USA_SSHS USA_R34_NE USA_R34_SE USA_R34_SW USA_R34_NW USA_R50_NE USA_R50_SE USA_R50_SW USA_R50_NW USA_R64_NE USA_R64_SE USA_R64_SW USA_R64_NW USA_POCI USA_ROCI USA_RMW USA_EYE TOKYO_LAT TOKYO_LON TOKYO_GRADE TOKYO_WIND TOKYO_PRES TOKYO_R50_DIR TOKYO_R50_LONG TOKYO_R50_SHORT TOKYO_R30_DIR TOKYO_R30_LONG TOKYO_R30_SHORT TOKYO_LAND CMA_LAT CMA_LON CMA_CAT CMA_WIND CMA_PRES HKO_LAT HKO_LON HKO_CAT HKO_WIND HKO_PRES NEWDELHI_LAT NEWDELHI_LON NEWDELHI_GRADE NEWDELHI_WIND NEWDELHI_PRES NEWDELHI_CI NEWDELHI_DP NEWDELHI_POCI REUNION_LAT REUNION_LON REUNION_TYPE REUNION_WIND REUNION_PRES REUNION_TNUM REUNION_CI REUNION_RMW REUNION_R34_NE REUNION_R34_SE REUNION_R34_SW REUNION_R34_NW REUNION_R50_NE REUNION_R50_SE REUNION_R50_SW REUNION_R50_NW REUNION_R64_NE REUNION_R64_SE REUNION_R64_SW REUNION_R64_NW BOM_LAT BOM_LON BOM_TYPE BOM_WIND BOM_PRES BOM_TNUM BOM_CI BOM_RMW BOM_R34_NE BOM_R34_SE BOM_R34_SW BOM_R34_NW BOM_R50_NE BOM_R50_SE BOM_R50_SW BOM_R50_NW BOM_R64_NE BOM_R64_SE BOM_R64_SW BOM_R64_NW BOM_ROCI BOM_POCI BOM_EYE BOM_POS_METHOD BOM_PRES_METHOD NADI_LAT NADI_LON NADI_CAT NADI_WIND NADI_PRES WELLINGTON_LAT WELLINGTON_LON WELLINGTON_WIND WELLINGTON_PRES DS824_LAT DS824_LON DS824_STAGE DS824_WIND DS824_PRES TD9636_LAT TD9636_LON TD9636_STAGE TD9636_WIND TD9636_PRES TD9635_LAT TD9635_LON TD9635_WIND TD9635_PRES TD9635_ROCI NEUMANN_LAT NEUMANN_LON NEUMANN_CLASS NEUMANN_WIND NEUMANN_PRES MLC_LAT MLC_LON MLC_CLASS MLC_WIND MLC_PRES USA_GUST BOM_GUST BOM_GUST_PER REUNION_GUST REUNION_GUST_PER USA_SEAHGT USA_SEARAD_NE USA_SEARAD_SE USA_SEARAD_SW USA_SEARAD_NW STORM_SPEED STORM_DIR
1920074S16119 1920 7 SI WA NOT_NAMED 1920-03-13 12:00:00 NR -16.4000 118.900 main 365 361 __________O___ -1 -16.4000 118.900 7 1 0
1920074S16119 1920 7 SI WA NOT_NAMED 1920-03-13 15:00:00 NR -16.4594 118.908 main 361 361 __________P___ -1 -16.4594 118.908 7 1 170
1920074S16119 1920 7 SI WA NOT_NAMED 1920-03-13 18:00:00 NR -16.5350 118.912 main 361 358 __________P___ -1 -16.5350 118.912 7 2 172
1920074S16119 1920 7 SI WA NOT_NAMED 1920-03-13 21:00:00 NR -16.6431 118.911 main 358 351 __________P___ -1 -16.6431 118.911 7 3 183
1920074S16119 1920 7 SI WA NOT_NAMED 1920-03-14 00:00:00 NR -16.8000 118.900 main 351 346 __________O___ -1 -16.8000 118.900 7 4 185
1920074S16119 1920 7 SI WA NOT_NAMED 1920-03-14 03:00:00 NR -17.0150 118.880 main 346 313 __________P___ -1 -17.0150 118.880 7 5 185
1920074S16119 1920 7 SI WA NOT_NAMED 1920-03-14 06:00:00 NR -17.2700 118.863 main 313 291 __________P___ -1 -17.2700 118.863 7 5 0
1920074S16119 1920 7 SI WA NOT_NAMED 1920-03-14 09:00:00 NR -17.5400 118.864 main 291 258 __________P___ -1 -17.5400 118.864 7 5 177
1920074S16119 1920 7 SI WA NOT_NAMED 1920-03-14 12:00:00 NR -17.8000 118.900 main 258 235 __________O___ -1 -17.8000 118.900 7 5 167
1920074S16119 1920 7 SI WA NOT_NAMED 1920-03-14 15:00:00 NR -18.0225 118.985 main 235 212 __________P___ -1 -18.0225 118.985 7 5 156
1920074S16119 1920 7 SI WA NOT_NAMED 1920-03-14 18:00:00 NR -18.2300 119.105 main 212 189 __________P___ -1 -18.2300 119.105 7 5 148
1920074S16119 1920 7 SI WA NOT_NAMED 1920-03-14 21:00:00 NR -18.4225 119.247 main 189 162 __________P___ -1 -18.4225 119.247 7 5 143
1920074S16119 1920 7 SI WA NOT_NAMED 1920-03-15 00:00:00 NR -18.6000 119.400 main 162 137 __________O___ -1 -18.6000 119.400 7 4 140
1920074S16119 1920 7 SI WA NOT_NAMED 1920-03-15 03:00:00 NR -18.7644 119.551 main 135 123 __________P___ -1 -18.7644 119.551 7 4 137
1920074S16119 1920 7 SI WA NOT_NAMED 1920-03-15 06:00:00 NR -18.9150 119.708 main 123 94 __________P___ -1 -18.9150 119.708 7 4 135
1920074S16119 1920 7 SI WA NOT_NAMED 1920-03-15 09:00:00 NR -19.0582 119.860 main 94 81 __________P___ -1 -19.0582 119.860 7 4 136
1920074S16119 1920 7 SI WA NOT_NAMED 1920-03-15 12:00:00 NR -19.2000 120.000 main 81 64 __________O___ -1 -19.2000 120.000 7 4 135
1920074S16119 1920 7 SI WA NOT_NAMED 1920-03-15 15:00:00 NR -19.3580 120.179 main 54 39 __________P___ -1 -19.3580 120.179 7 4 135
1920074S16119 1920 7 SI WA NOT_NAMED 1920-03-15 18:00:00 NR -19.5147 120.335 main 39 15 __________P___ -1 -19.5147 120.335 7 4 143
1920074S16119 1920 7 SI WA NOT_NAMED 1920-03-15 21:00:00 NR -19.6641 120.423 main 15 10 __________P___ -1 -19.6641 120.423 7 3 169
1920074S16119 1920 7 SI WA NOT_NAMED 1920-03-16 00:00:00 NR -19.8000 120.400 main 10 0 __________O___ -1 -19.8000 120.400 7 4 213
1920074S16119 1920 7 SI WA NOT_NAMED 1920-03-16 03:00:00 NR -19.9634 120.216 main 0 0 __________P___ -1 -19.9634 120.216 7 5 236
1920074S16119 1920 7 SI WA NOT_NAMED 1920-03-16 06:00:00 NR -20.1054 119.921 main 0 0 __________P___ -1 -20.1054 119.921 7 7 249
1920074S16119 1920 7 SI WA NOT_NAMED 1920-03-16 09:00:00 NR -20.1947 119.566 main 0 0 __________P___ -1 -20.1947 119.566 7 7 262
1920074S16119 1920 7 SI WA NOT_NAMED 1920-03-16 12:00:00 NR -20.2000 119.200 main 0 0 __________O___ -1 -20.2000 119.200 7 7 278
1920074S16119 1920 7 SI WA NOT_NAMED 1920-03-16 15:00:00 NR -20.1005 118.864 main 15 15 __________P___ -1 -20.1005 118.864 7 7 295
1920074S16119 1920 7 SI WA NOT_NAMED 1920-03-16 18:00:00 NR -19.9149 118.558 main 53 53 __________P___ -1 -19.9149 118.558 7 7 308
1920074S16119 1920 7 SI WA NOT_NAMED 1920-03-16 21:00:00 NR -19.6719 118.274 main 78 78 __________P___ -1 -19.6719 118.274 7 7 314
1920074S16119 1920 7 SI WA NOT_NAMED 1920-03-17 00:00:00 NR -19.4000 118.000 main 112 __________O___ -1 -19.4000 118.000 7 8 316

About IBTrACS Database

This database is a web-friendly format of International Best Track Archive for Climate Stewardship (IBTrACS), a global best track data archive curated by NOAA dating back to 1842.

Updated: 2021-11-26